Time;durP1;ratioP1;P1;durP2;ratioP2;P2;SDS_P1;SDS_P2;PMS_P1;PMS_P2;Temp;Humidity;BMP_temperature;BMP_pressure;BME280_temperature;BME280_humidity;BME280_pressure;Samples;Min_cycle;Max_cycle;Signal;HPM_P1;HPM_P2
2020/12/16 00:12:34;;;;;;;73.33;33.13;;;;;;;2.50;100.00;100570.41;10806744;81;21017;-80
2020/12/16 00:27:40;;;;;;;71.72;34.80;;;;;;;2.53;100.00;100587.55;10795697;81;20981;-79
2020/12/16 00:42:49;;;;;;;67.30;32.30;;;;;;;2.49;100.00;100583.00;10773478;82;21450;-81
2020/12/16 00:57:55;;;;;;;73.72;32.42;;;;;;;2.40;100.00;100583.45;10756702;82;21037;-82
2020/12/16 01:13:02;;;;;;;73.45;31.52;;;;;;;2.40;100.00;100578.28;10752902;82;21108;-82
2020/12/16 01:28:08;;;;;;;67.75;31.75;;;;;;;2.09;100.00;100565.52;10740233;82;21096;-82
2020/12/16 01:43:12;;;;;;;78.45;32.67;;;;;;;2.03;100.00;100528.73;10714791;82;22072;-80
2020/12/16 01:58:20;;;;;;;79.27;35.13;;;;;;;2.11;100.00;100555.94;10720614;82;21024;-83
2020/12/16 02:13:24;;;;;;;79.90;34.47;;;;;;;2.05;100.00;100556.22;10711752;81;21052;-85
2020/12/16 02:28:28;;;;;;;78.75;34.33;;;;;;;2.01;100.00;100545.64;10387343;84;21606;-85
2020/12/16 02:43:34;;;;;;;66.85;31.90;;;;;;;2.11;100.00;100549.91;10743204;81;21100;-85
2020/12/16 02:58:45;;;;;;;76.07;36.15;;;;;;;2.20;100.00;100539.57;10714453;82;21068;-83
2020/12/16 03:13:49;;;;;;;70.95;32.33;;;;;;;2.16;100.00;100550.52;10720177;82;21013;-83
2020/12/16 03:28:54;;;;;;;62.05;32.25;;;;;;;2.40;100.00;100561.88;10675550;81;21132;-84
2020/12/16 03:43:59;;;;;;;66.15;30.77;;;;;;;2.30;100.00;100561.51;10686368;82;21061;-88
2020/12/16 03:59:03;;;;;;;63.60;31.02;;;;;;;2.64;100.00;100568.91;10710555;82;21069;-89
2020/12/16 04:14:09;;;;;;;;;;;;;;;2.71;100.00;100569.43;10808820;81;21044;-82
2020/12/16 04:29:14;;;;;;;68.55;32.75;;;;;;;2.70;100.00;100570.34;10682751;82;20178;-88
2020/12/16 04:44:18;;;;;;;68.85;29.12;;;;;;;2.94;100.00;100569.09;10719362;82;21123;-87
2020/12/16 04:59:22;;;;;;;62.33;29.18;;;;;;;3.11;100.00;100585.51;10697988;82;21112;-89
2020/12/16 05:14:26;;;;;;;67.80;31.55;;;;;;;3.23;100.00;100587.45;10672783;82;21028;-86
2020/12/16 05:29:32;;;;;;;58.25;26.77;;;;;;;3.26;100.00;100589.91;10753675;82;21032;-85
2020/12/16 05:44:37;;;;;;;71.65;32.00;;;;;;;3.46;100.00;100617.84;10759554;81;21495;-85
2020/12/16 05:59:41;;;;;;;78.02;32.30;;;;;;;3.48;100.00;100639.33;10683495;82;21055;-85
2020/12/16 06:14:49;;;;;;;69.77;34.75;;;;;;;3.49;100.00;100644.91;10650587;82;21121;-85
2020/12/16 06:29:57;;;;;;;76.25;34.45;;;;;;;3.57;100.00;100656.18;10766808;82;21087;-86
2020/12/16 06:45:12;;;;;;;89.67;37.65;;;;;;;3.62;100.00;100671.88;10733186;81;21377;-85
2020/12/16 07:00:29;;;;;;;77.00;36.77;;;;;;;3.45;100.00;100685.72;10721603;81;21104;-86
2020/12/16 07:15:43;;;;;;;114.82;56.92;;;;;;;3.50;100.00;100686.33;10763443;81;21454;-87
2020/12/16 07:30:53;;;;;;;85.42;42.23;;;;;;;3.52;100.00;100708.30;10784983;81;21108;-87
2020/12/16 07:46:06;;;;;;;130.67;66.07;;;;;;;3.69;100.00;100706.59;10776818;81;21024;-87
2020/12/16 08:01:13;;;;;;;112.83;51.90;;;;;;;3.77;100.00;100723.89;10729130;81;20997;-88
2020/12/16 08:16:19;;;;;;;188.72;98.40;;;;;;;3.91;100.00;100737.45;10729504;81;21142;-85
2020/12/16 08:31:26;;;;;;;160.65;67.40;;;;;;;3.98;100.00;100752.59;10726934;82;21513;-86
2020/12/16 08:46:30;;;;;;;123.07;57.40;;;;;;;4.12;100.00;100773.95;10705276;81;21512;-86
2020/12/16 09:01:35;;;;;;;133.80;54.80;;;;;;;4.25;100.00;100796.21;10692282;82;21088;-85
2020/12/16 09:16:42;;;;;;;165.77;59.17;;;;;;;4.36;100.00;100806.02;10713766;82;21167;-86
2020/12/16 09:31:47;;;;;;;196.10;82.00;;;;;;;4.45;100.00;100813.79;10727298;81;21067;-87
2020/12/16 09:46:55;;;;;;;177.85;72.58;;;;;;;4.59;100.00;100832.08;10736878;81;21556;-85
2020/12/16 10:02:00;;;;;;;192.30;72.80;;;;;;;4.70;100.00;100833.23;10483733;83;21043;-87
2020/12/16 10:17:04;;;;;;;191.05;74.85;;;;;;;4.74;100.00;100839.93;10412909;84;21152;-87
2020/12/16 10:32:09;;;;;;;200.30;84.80;;;;;;;4.83;100.00;100867.58;10724810;81;21092;-84
2020/12/16 10:47:14;;;;;;;134.00;51.13;;;;;;;4.95;100.00;100888.64;10756098;81;21128;-85
2020/12/16 11:02:18;;;;;;;141.40;52.08;;;;;;;5.04;100.00;100868.63;10749400;81;20993;-86
2020/12/16 11:17:24;;;;;;;147.95;51.75;;;;;;;5.22;100.00;100862.02;10691890;82;21520;-86
2020/12/16 11:32:28;;;;;;;163.18;56.85;;;;;;;5.37;100.00;100859.85;10716385;82;21041;-85
2020/12/16 11:47:32;;;;;;;112.30;43.33;;;;;;;5.53;100.00;100868.06;10699216;82;21079;-85
2020/12/16 12:02:36;;;;;;;262.63;89.58;;;;;;;5.52;100.00;100879.39;10710116;81;21045;-85
2020/12/16 12:17:44;;;;;;;236.05;115.30;;;;;;;5.76;100.00;100884.48;10336915;84;21139;-84
2020/12/16 12:32:48;;;;;;;133.25;52.60;;;;;;;5.77;100.00;100914.81;10522300;83;21027;-84
2020/12/16 12:47:53;;;;;;;208.00;84.62;;;;;;;5.88;100.00;100926.38;10700773;82;21090;-86
2020/12/16 13:02:57;;;;;;;293.42;103.45;;;;;;;5.95;100.00;100955.87;10699529;82;21587;-83
2020/12/16 13:18:03;;;;;;;227.07;117.82;;;;;;;6.04;100.00;100958.43;10333222;85;21575;-86
2020/12/16 13:33:08;;;;;;;347.83;126.37;;;;;;;6.13;100.00;100970.09;10370470;84;21035;-86
2020/12/16 13:48:15;;;;;;;206.02;78.42;;;;;;;6.14;100.00;101012.16;10558755;82;21026;-88
2020/12/16 14:03:19;;;;;;;146.75;60.78;;;;;;;6.17;100.00;101026.30;10556546;83;21467;-89
2020/12/16 14:18:24;;;;;;;128.12;50.12;;;;;;;6.21;100.00;101042.12;10554591;82;21011;-89
2020/12/16 14:33:31;;;;;;;126.50;49.75;;;;;;;6.44;100.00;101046.45;10768300;81;21017;-89
2020/12/16 14:48:35;;;;;;;180.82;78.00;;;;;;;6.51;100.00;101056.91;10319778;85;21656;-89
2020/12/16 15:03:40;;;;;;;87.22;38.53;;;;;;;6.53;100.00;101088.93;10594458;82;21049;-89
2020/12/16 15:18:46;;;;;;;93.47;36.33;;;;;;;6.63;100.00;101095.77;10675633;81;21037;-89
2020/12/16 15:33:55;;;;;;;143.70;54.00;;;;;;;6.62;100.00;101087.09;10735496;82;21083;-89
2020/12/16 15:49:01;;;;;;;201.85;62.75;;;;;;;6.62;100.00;101107.13;10371197;84;21015;-89
2020/12/16 16:04:08;;;;;;;404.57;161.40;;;;;;;6.57;100.00;101110.45;10436460;84;21479;-87
2020/12/16 16:19:15;;;;;;;479.23;167.70;;;;;;;6.51;100.00;101148.16;10438131;84;21053;-89
2020/12/16 16:34:20;;;;;;;176.50;73.00;;;;;;;6.54;100.00;101151.05;10445362;84;21025;-87
2020/12/16 16:49:26;;;;;;;164.65;63.73;;;;;;;6.46;100.00;101171.86;10449994;84;21148;-86
2020/12/16 17:04:30;;;;;;;473.50;183.25;;;;;;;6.48;100.00;101190.88;10742762;82;21068;-86
2020/12/16 17:19:36;;;;;;;516.40;207.70;;;;;;;6.43;100.00;101194.68;10712405;82;21123;-87
2020/12/16 17:34:44;;;;;;;234.00;100.20;;;;;;;6.45;100.00;101207.14;10745565;81;21076;-86
2020/12/16 17:49:51;;;;;;;216.35;91.37;;;;;;;6.55;100.00;101212.70;10733983;81;21064;-87
2020/12/16 18:04:56;;;;;;;266.00;110.88;;;;;;;6.45;100.00;101226.25;10724616;81;21080;-88
2020/12/16 18:20:02;;;;;;;246.57;86.67;;;;;;;6.50;100.00;101233.80;10773277;81;21075;-87
2020/12/16 18:35:06;;;;;;;227.93;85.85;;;;;;;6.43;100.00;101241.59;10760319;81;21164;-87
2020/12/16 18:50:14;;;;;;;190.68;73.40;;;;;;;6.37;100.00;101254.95;10740053;81;21206;-85
2020/12/16 19:05:20;;;;;;;197.50;87.67;;;;;;;6.38;100.00;101261.86;10734727;81;21037;-82
2020/12/16 19:20:28;;;;;;;216.82;84.47;;;;;;;6.45;100.00;101274.92;10713806;82;21462;-82
2020/12/16 19:35:34;;;;;;;240.05;91.55;;;;;;;6.46;100.00;101285.25;10390696;84;21082;-82
2020/12/16 19:50:39;;;;;;;239.95;89.00;;;;;;;6.43;100.00;101275.01;10742833;82;21171;-81
2020/12/16 20:05:44;;;;;;;282.20;91.57;;;;;;;6.44;100.00;101292.34;10759225;81;21079;-81
2020/12/16 20:20:49;;;;;;;193.15;78.50;;;;;;;6.41;100.00;101307.30;10730187;82;21060;-84
2020/12/16 20:35:57;;;;;;;260.52;101.60;;;;;;;6.27;100.00;101300.23;10721236;82;21524;-88
2020/12/16 20:51:03;;;;;;;139.07;61.35;;;;;;;6.39;100.00;101306.52;10743280;82;21041;-81
2020/12/16 21:06:08;;;;;;;244.55;85.65;;;;;;;6.36;100.00;101316.68;10746568;81;21104;-82
2020/12/16 21:21:12;;;;;;;320.27;114.17;;;;;;;6.38;100.00;101325.72;10785526;81;21072;-82
2020/12/16 21:36:19;;;;;;;101.12;40.35;;;;;;;6.39;100.00;101333.89;10777533;81;21063;-81
2020/12/16 21:51:23;;;;;;;91.72;37.88;;;;;;;6.34;100.00;101345.88;10738131;81;21519;-81
2020/12/16 22:06:28;;;;;;;106.15;39.95;;;;;;;6.33;100.00;101353.31;10714401;82;21020;-83
2020/12/16 22:21:33;;;;;;;122.95;45.85;;;;;;;6.23;100.00;101343.86;10713118;82;21127;-79
2020/12/16 22:36:38;;;;;;;87.85;38.78;;;;;;;6.23;100.00;101339.08;10706811;82;21041;-80
2020/12/16 22:51:44;;;;;;;69.80;32.93;;;;;;;6.22;100.00;101337.42;10769309;81;21036;-80
2020/12/16 23:06:53;;;;;;;82.75;36.15;;;;;;;6.17;100.00;101338.95;10796521;82;21196;-80
2020/12/16 23:21:59;;;;;;;80.15;35.92;;;;;;;6.15;100.00;101342.95;10790650;81;21123;-79
2020/12/16 23:37:04;;;;;;;124.07;45.05;;;;;;;6.23;100.00;101337.78;10752086;81;21135;-79
2020/12/16 23:52:08;;;;;;;70.67;31.07;;;;;;;6.27;100.00;101334.12;10786344;82;21211;-79
